sensor_id;sensor_type;location;lat;lon;timestamp;pressure;altitude;pressure_sealevel;temperature;humidity
1029;BME280;503;48.120;11.488;2022-11-30T00:02:14;95494.94;;;8.77;56.34
1029;BME280;503;48.120;11.488;2022-11-30T00:04:39;95500.78;;;8.55;56.56
1029;BME280;503;48.120;11.488;2022-11-30T00:07:04;95510.06;;;8.52;56.66
1029;BME280;503;48.120;11.488;2022-11-30T00:09:29;95508.72;;;8.55;56.38
1029;BME280;503;48.120;11.488;2022-11-30T00:11:54;95507.72;;;8.51;56.33
1029;BME280;503;48.120;11.488;2022-11-30T00:14:20;95498.13;;;8.55;56.57
1029;BME280;503;48.120;11.488;2022-11-30T00:16:45;95493.38;;;8.52;56.48
1029;BME280;503;48.120;11.488;2022-11-30T00:19:10;95501.88;;;8.49;56.58
1029;BME280;503;48.120;11.488;2022-11-30T00:21:35;95501.94;;;8.68;56.29
1029;BME280;503;48.120;11.488;2022-11-30T00:24:00;95496.94;;;8.66;56.23
1029;BME280;503;48.120;11.488;2022-11-30T00:26:25;95505.63;;;8.72;56.08
1029;BME280;503;48.120;11.488;2022-11-30T00:28:51;95498.00;;;8.65;56.18
1029;BME280;503;48.120;11.488;2022-11-30T00:31:16;95502.34;;;8.56;56.23
1029;BME280;503;48.120;11.488;2022-11-30T00:33:42;95508.13;;;7.71;57.27
1029;BME280;503;48.120;11.488;2022-11-30T00:36:10;95498.13;;;8.26;57.20
1029;BME280;503;48.120;11.488;2022-11-30T00:38:35;95500.06;;;8.44;56.93
1029;BME280;503;48.120;11.488;2022-11-30T00:41:00;95512.03;;;8.42;56.57
1029;BME280;503;48.120;11.488;2022-11-30T00:43:26;95505.56;;;8.53;56.96
1029;BME280;503;48.120;11.488;2022-11-30T00:45:51;95506.63;;;8.52;56.51
1029;BME280;503;48.120;11.488;2022-11-30T00:48:16;95515.28;;;8.04;57.60
1029;BME280;503;48.120;11.488;2022-11-30T00:50:42;95512.78;;;8.13;57.33
1029;BME280;503;48.120;11.488;2022-11-30T00:53:07;95514.66;;;7.84;57.50
1029;BME280;503;48.120;11.488;2022-11-30T00:55:32;95524.50;;;8.07;57.31
1029;BME280;503;48.120;11.488;2022-11-30T00:57:58;95522.75;;;8.26;57.13
1029;BME280;503;48.120;11.488;2022-11-30T01:00:23;95525.88;;;7.65;58.25
1029;BME280;503;48.120;11.488;2022-11-30T01:02:52;95526.69;;;8.00;57.84
1029;BME280;503;48.120;11.488;2022-11-30T01:05:17;95523.38;;;8.13;57.40
1029;BME280;503;48.120;11.488;2022-11-30T01:07:42;95521.63;;;8.32;56.97
1029;BME280;503;48.120;11.488;2022-11-30T01:10:07;95521.31;;;8.39;56.86
1029;BME280;503;48.120;11.488;2022-11-30T01:12:33;95520.66;;;8.23;57.06
1029;BME280;503;48.120;11.488;2022-11-30T01:14:58;95521.91;;;8.02;57.17
1029;BME280;503;48.120;11.488;2022-11-30T01:17:23;95524.72;;;8.16;57.01
1029;BME280;503;48.120;11.488;2022-11-30T01:19:48;95517.91;;;8.33;56.63
1029;BME280;503;48.120;11.488;2022-11-30T01:22:13;95525.00;;;8.43;56.28
1029;BME280;503;48.120;11.488;2022-11-30T01:24:38;95525.25;;;8.47;55.99
1029;BME280;503;48.120;11.488;2022-11-30T01:27:04;95521.41;;;8.58;55.75
1029;BME280;503;48.120;11.488;2022-11-30T01:29:29;95520.75;;;8.71;55.96
1029;BME280;503;48.120;11.488;2022-11-30T01:31:54;95523.53;;;8.80;55.84
1029;BME280;503;48.120;11.488;2022-11-30T01:34:19;95530.03;;;8.69;55.41
1029;BME280;503;48.120;11.488;2022-11-30T01:36:45;95520.84;;;8.85;55.53
1029;BME280;503;48.120;11.488;2022-11-30T01:39:10;95524.56;;;8.84;55.86
1029;BME280;503;48.120;11.488;2022-11-30T01:41:35;95527.44;;;8.40;56.18
1029;BME280;503;48.120;11.488;2022-11-30T01:46:31;95526.75;;;7.95;57.57
1029;BME280;503;48.120;11.488;2022-11-30T01:54:01;95518.53;;;8.54;56.46
1029;BME280;503;48.120;11.488;2022-11-30T01:56:27;95518.25;;;8.56;55.93
1029;BME280;503;48.120;11.488;2022-11-30T01:58:53;95526.38;;;8.65;55.72
1029;BME280;503;48.120;11.488;2022-11-30T02:01:18;95522.13;;;8.64;55.24
1029;BME280;503;48.120;11.488;2022-11-30T02:03:54;95524.34;;;8.56;55.08
1029;BME280;503;48.120;11.488;2022-11-30T02:06:23;95521.00;;;8.70;55.36
1029;BME280;503;48.120;11.488;2022-11-30T02:08:49;95514.84;;;8.21;55.85
1029;BME280;503;48.120;11.488;2022-11-30T02:11:14;95515.19;;;8.44;55.87
1029;BME280;503;48.120;11.488;2022-11-30T02:21:52;95516.31;;;8.38;56.32
1029;BME280;503;48.120;11.488;2022-11-30T02:32:00;95529.31;;;8.63;55.63
1029;BME280;503;48.120;11.488;2022-11-30T02:34:28;95530.38;;;8.62;55.73
1029;BME280;503;48.120;11.488;2022-11-30T02:36:55;95533.22;;;8.71;55.38
1029;BME280;503;48.120;11.488;2022-11-30T02:39:21;95454.59;;;8.32;55.16
1029;BME280;503;48.120;11.488;2022-11-30T02:41:46;95531.97;;;8.87;55.04
1029;BME280;503;48.120;11.488;2022-11-30T02:44:12;95534.91;;;8.85;54.92
1029;BME280;503;48.120;11.488;2022-11-30T02:51:34;95540.69;;;8.64;55.15
1029;BME280;503;48.120;11.488;2022-11-30T02:54:01;95541.03;;;8.57;55.29
1029;BME280;503;48.120;11.488;2022-11-30T02:56:27;95539.25;;;8.76;55.43
1029;BME280;503;48.120;11.488;2022-11-30T02:58:53;95535.59;;;8.72;55.22
1029;BME280;503;48.120;11.488;2022-11-30T03:01:18;95542.16;;;8.51;55.46
1029;BME280;503;48.120;11.488;2022-11-30T03:03:43;95539.56;;;8.70;55.41
1029;BME280;503;48.120;11.488;2022-11-30T03:06:09;95545.28;;;8.58;55.72
1029;BME280;503;48.120;11.488;2022-11-30T03:08:34;95544.63;;;8.42;55.67
1029;BME280;503;48.120;11.488;2022-11-30T03:11:03;95539.19;;;8.57;55.53
1029;BME280;503;48.120;11.488;2022-11-30T03:13:29;95544.50;;;8.23;56.10
1029;BME280;503;48.120;11.488;2022-11-30T03:15:54;95545.38;;;8.48;55.85
1029;BME280;503;48.120;11.488;2022-11-30T03:18:19;95544.47;;;8.57;55.93
1029;BME280;503;48.120;11.488;2022-11-30T03:20:45;95556.34;;;8.36;55.94
1029;BME280;503;48.120;11.488;2022-11-30T03:23:10;95554.16;;;8.43;55.83
1029;BME280;503;48.120;11.488;2022-11-30T03:25:35;95555.09;;;8.23;56.08
1029;BME280;503;48.120;11.488;2022-11-30T03:28:00;95564.63;;;8.29;56.20
1029;BME280;503;48.120;11.488;2022-11-30T03:30:26;95557.91;;;8.03;56.66
1029;BME280;503;48.120;11.488;2022-11-30T03:32:51;95559.00;;;8.02;56.46
1029;BME280;503;48.120;11.488;2022-11-30T03:35:16;95564.03;;;7.98;57.20
1029;BME280;503;48.120;11.488;2022-11-30T03:37:42;95557.28;;;7.82;56.74
1029;BME280;503;48.120;11.488;2022-11-30T03:40:07;95560.84;;;7.13;58.19
1029;BME280;503;48.120;11.488;2022-11-30T03:42:32;95565.78;;;7.35;58.02
1029;BME280;503;48.120;11.488;2022-11-30T03:44:57;95564.09;;;7.54;57.81
1029;BME280;503;48.120;11.488;2022-11-30T03:47:23;95572.41;;;7.32;58.37
1029;BME280;503;48.120;11.488;2022-11-30T03:49:48;95561.94;;;7.07;58.41
1029;BME280;503;48.120;11.488;2022-11-30T03:52:13;95566.97;;;7.08;58.90
1029;BME280;503;48.120;11.488;2022-11-30T03:54:38;95572.13;;;7.34;58.34
1029;BME280;503;48.120;11.488;2022-11-30T03:57:03;95564.69;;;6.76;59.18
1029;BME280;503;48.120;11.488;2022-11-30T03:59:28;95557.97;;;7.09;58.69
1029;BME280;503;48.120;11.488;2022-11-30T04:01:54;95562.06;;;6.76;59.44
1029;BME280;503;48.120;11.488;2022-11-30T04:04:19;95568.16;;;6.71;59.34
1029;BME280;503;48.120;11.488;2022-11-30T04:06:44;95563.31;;;6.94;59.30
1029;BME280;503;48.120;11.488;2022-11-30T04:09:09;95567.69;;;6.23;60.61
1029;BME280;503;48.120;11.488;2022-11-30T04:11:34;95563.66;;;6.72;59.39
1029;BME280;503;48.120;11.488;2022-11-30T04:14:00;95557.22;;;6.93;59.14
1029;BME280;503;48.120;11.488;2022-11-30T04:16:25;95548.31;;;7.34;58.42
1029;BME280;503;48.120;11.488;2022-11-30T04:18:50;95553.94;;;7.66;57.45
1029;BME280;503;48.120;11.488;2022-11-30T04:21:15;95553.81;;;7.87;57.33
1029;BME280;503;48.120;11.488;2022-11-30T04:23:41;95551.63;;;7.99;56.15
1029;BME280;503;48.120;11.488;2022-11-30T04:26:07;95553.06;;;8.15;55.90
1029;BME280;503;48.120;11.488;2022-11-30T04:28:33;95555.44;;;8.17;55.59
1029;BME280;503;48.120;11.488;2022-11-30T04:30:58;95561.38;;;8.32;55.40
1029;BME280;503;48.120;11.488;2022-11-30T04:33:25;95552.34;;;8.39;55.10
1029;BME280;503;48.120;11.488;2022-11-30T04:35:52;95546.78;;;8.40;54.80
1029;BME280;503;48.120;11.488;2022-11-30T04:38:18;95551.75;;;8.47;54.73
1029;BME280;503;48.120;11.488;2022-11-30T04:40:43;95547.13;;;8.57;54.83
1029;BME280;503;48.120;11.488;2022-11-30T04:43:08;95548.91;;;8.67;54.47
1029;BME280;503;48.120;11.488;2022-11-30T04:45:34;95555.72;;;8.73;54.19
1029;BME280;503;48.120;11.488;2022-11-30T04:47:59;95560.47;;;8.76;54.22
1029;BME280;503;48.120;11.488;2022-11-30T04:50:24;95556.97;;;8.81;53.93
1029;BME280;503;48.120;11.488;2022-11-30T04:52:50;95555.78;;;8.68;53.94
1029;BME280;503;48.120;11.488;2022-11-30T04:55:15;95556.00;;;8.72;54.27
1029;BME280;503;48.120;11.488;2022-11-30T04:57:43;95558.31;;;8.78;54.07
1029;BME280;503;48.120;11.488;2022-11-30T05:00:08;95565.16;;;8.84;53.55
1029;BME280;503;48.120;11.488;2022-11-30T05:02:34;95564.53;;;8.93;53.54
1029;BME280;503;48.120;11.488;2022-11-30T05:04:59;95565.81;;;8.95;53.82
1029;BME280;503;48.120;11.488;2022-11-30T05:07:24;95568.28;;;8.92;53.87
1029;BME280;503;48.120;11.488;2022-11-30T05:09:49;95563.75;;;8.92;53.61
1029;BME280;503;48.120;11.488;2022-11-30T05:12:14;95568.28;;;8.92;54.04
1029;BME280;503;48.120;11.488;2022-11-30T05:14:40;95568.81;;;8.89;53.39
1029;BME280;503;48.120;11.488;2022-11-30T05:17:05;95571.53;;;8.83;53.49
1029;BME280;503;48.120;11.488;2022-11-30T05:19:30;95570.50;;;8.79;53.72
1029;BME280;503;48.120;11.488;2022-11-30T05:21:55;95575.13;;;8.69;54.03
1029;BME280;503;48.120;11.488;2022-11-30T05:24:20;95572.91;;;8.52;54.10
1029;BME280;503;48.120;11.488;2022-11-30T05:26:45;95570.44;;;8.61;53.96
1029;BME280;503;48.120;11.488;2022-11-30T05:29:11;95577.78;;;8.69;54.16
1029;BME280;503;48.120;11.488;2022-11-30T05:31:36;95576.84;;;8.54;54.49
1029;BME280;503;48.120;11.488;2022-11-30T05:34:02;95584.34;;;8.47;54.57
1029;BME280;503;48.120;11.488;2022-11-30T05:36:27;95579.19;;;8.27;55.05
1029;BME280;503;48.120;11.488;2022-11-30T05:38:52;95586.31;;;8.37;54.88
1029;BME280;503;48.120;11.488;2022-11-30T05:41:17;95583.06;;;8.45;54.88
1029;BME280;503;48.120;11.488;2022-11-30T05:43:43;95589.09;;;7.77;56.66
1029;BME280;503;48.120;11.488;2022-11-30T05:46:08;95588.25;;;7.87;56.53
1029;BME280;503;48.120;11.488;2022-11-30T05:48:34;95598.63;;;8.17;55.96
1029;BME280;503;48.120;11.488;2022-11-30T05:51:10;95598.63;;;8.17;55.74
1029;BME280;503;48.120;11.488;2022-11-30T05:53:36;95592.63;;;8.41;55.27
1029;BME280;503;48.120;11.488;2022-11-30T05:56:05;95595.69;;;8.53;55.22
1029;BME280;503;48.120;11.488;2022-11-30T05:58:31;95597.19;;;8.30;54.65
1029;BME280;503;48.120;11.488;2022-11-30T06:00:56;95606.44;;;8.32;54.94
1029;BME280;503;48.120;11.488;2022-11-30T06:03:21;95512.75;;;7.89;55.14
1029;BME280;503;48.120;11.488;2022-11-30T06:05:48;95603.94;;;8.51;54.76
1029;BME280;503;48.120;11.488;2022-11-30T06:08:14;95605.28;;;8.15;54.75
1029;BME280;503;48.120;11.488;2022-11-30T06:10:39;95601.38;;;8.02;55.38
1029;BME280;503;48.120;11.488;2022-11-30T06:13:05;95604.34;;;7.95;55.47
1029;BME280;503;48.120;11.488;2022-11-30T06:15:30;95603.75;;;8.03;55.72
1029;BME280;503;48.120;11.488;2022-11-30T06:17:55;95594.75;;;8.04;55.54
1029;BME280;503;48.120;11.488;2022-11-30T06:20:20;95602.66;;;8.10;55.14
1029;BME280;503;48.120;11.488;2022-11-30T06:22:46;95518.41;;;7.72;55.24
1029;BME280;503;48.120;11.488;2022-11-30T06:25:11;95606.81;;;8.21;55.82
1029;BME280;503;48.120;11.488;2022-11-30T06:27:36;95594.03;;;8.28;54.77
1029;BME280;503;48.120;11.488;2022-11-30T06:30:02;95581.66;;;8.52;54.47
1029;BME280;503;48.120;11.488;2022-11-30T06:32:27;95600.31;;;8.71;54.40
1029;BME280;503;48.120;11.488;2022-11-30T06:34:52;95588.53;;;8.82;53.54
1029;BME280;503;48.120;11.488;2022-11-30T06:37:18;95595.06;;;8.90;53.13
1029;BME280;503;48.120;11.488;2022-11-30T06:39:43;95590.72;;;8.99;53.00
1029;BME280;503;48.120;11.488;2022-11-30T06:42:08;95598.56;;;9.09;53.05
1029;BME280;503;48.120;11.488;2022-11-30T06:44:33;95589.69;;;9.19;53.10
1029;BME280;503;48.120;11.488;2022-11-30T06:46:59;95592.00;;;9.26;52.84
1029;BME280;503;48.120;11.488;2022-11-30T06:49:24;95588.84;;;9.24;52.34
1029;BME280;503;48.120;11.488;2022-11-30T06:51:49;95589.28;;;9.31;52.26
1029;BME280;503;48.120;11.488;2022-11-30T06:54:15;95593.25;;;9.33;52.58
1029;BME280;503;48.120;11.488;2022-11-30T06:56:40;95597.13;;;9.41;52.10
1029;BME280;503;48.120;11.488;2022-11-30T06:59:05;95601.59;;;9.46;52.09
1029;BME280;503;48.120;11.488;2022-11-30T07:01:30;95608.47;;;9.47;52.08
1029;BME280;503;48.120;11.488;2022-11-30T07:03:55;95603.69;;;9.49;52.06
1029;BME280;503;48.120;11.488;2022-11-30T07:06:21;95607.13;;;9.49;51.92
1029;BME280;503;48.120;11.488;2022-11-30T07:08:46;95606.91;;;9.46;51.81
1029;BME280;503;48.120;11.488;2022-11-30T07:11:11;95604.75;;;9.48;51.50
1029;BME280;503;48.120;11.488;2022-11-30T07:13:36;95611.13;;;9.47;51.59
1029;BME280;503;48.120;11.488;2022-11-30T07:16:05;95610.06;;;9.48;50.88
1029;BME280;503;48.120;11.488;2022-11-30T07:18:31;95618.16;;;9.37;51.06
1029;BME280;503;48.120;11.488;2022-11-30T07:21:00;95613.34;;;9.40;50.75
1029;BME280;503;48.120;11.488;2022-11-30T07:23:26;95612.22;;;9.46;50.93
1029;BME280;503;48.120;11.488;2022-11-30T07:26:10;95610.59;;;9.26;50.56
1029;BME280;503;48.120;11.488;2022-11-30T07:28:36;95589.19;;;8.93;51.14
1029;BME280;503;48.120;11.488;2022-11-30T07:31:18;95612.31;;;9.17;50.99
1029;BME280;503;48.120;11.488;2022-11-30T07:33:44;95615.41;;;9.24;51.46
1029;BME280;503;48.120;11.488;2022-11-30T07:36:10;95620.16;;;9.27;51.04
1029;BME280;503;48.120;11.488;2022-11-30T07:38:35;95618.22;;;9.32;51.43
1029;BME280;503;48.120;11.488;2022-11-30T07:41:00;95618.00;;;9.29;50.91
1029;BME280;503;48.120;11.488;2022-11-30T07:43:26;95612.84;;;9.37;50.76
1029;BME280;503;48.120;11.488;2022-11-30T07:45:51;95613.91;;;9.36;51.00
1029;BME280;503;48.120;11.488;2022-11-30T07:48:17;95620.56;;;9.58;50.74
1029;BME280;503;48.120;11.488;2022-11-30T07:50:43;95615.59;;;9.51;51.00
1029;BME280;503;48.120;11.488;2022-11-30T07:53:08;95614.19;;;9.59;50.48
1029;BME280;503;48.120;11.488;2022-11-30T07:55:33;95619.19;;;9.60;50.33
1029;BME280;503;48.120;11.488;2022-11-30T07:57:58;95614.59;;;9.66;50.39
1029;BME280;503;48.120;11.488;2022-11-30T08:00:24;95608.06;;;9.77;50.56
1029;BME280;503;48.120;11.488;2022-11-30T08:02:49;95617.69;;;9.92;50.67
1029;BME280;503;48.120;11.488;2022-11-30T08:05:15;95618.28;;;10.08;50.21
1029;BME280;503;48.120;11.488;2022-11-30T08:07:40;95616.84;;;10.15;49.89
1029;BME280;503;48.120;11.488;2022-11-30T08:10:06;95609.22;;;10.28;49.59
1029;BME280;503;48.120;11.488;2022-11-30T08:12:31;95614.09;;;10.21;49.00
1029;BME280;503;48.120;11.488;2022-11-30T08:14:56;95617.22;;;10.09;49.59
1029;BME280;503;48.120;11.488;2022-11-30T08:17:21;95617.06;;;10.19;49.66
1029;BME280;503;48.120;11.488;2022-11-30T08:19:47;95623.53;;;10.32;48.96
1029;BME280;503;48.120;11.488;2022-11-30T08:22:12;95616.94;;;10.29;49.02
1029;BME280;503;48.120;11.488;2022-11-30T08:24:37;95620.78;;;10.18;49.04
1029;BME280;503;48.120;11.488;2022-11-30T08:27:02;95614.59;;;10.23;49.14
1029;BME280;503;48.120;11.488;2022-11-30T08:29:27;95617.41;;;10.31;48.95
1029;BME280;503;48.120;11.488;2022-11-30T08:31:53;95623.22;;;10.33;48.35
1029;BME280;503;48.120;11.488;2022-11-30T08:34:18;95622.59;;;10.41;48.35
1029;BME280;503;48.120;11.488;2022-11-30T08:36:44;95626.41;;;10.35;48.86
1029;BME280;503;48.120;11.488;2022-11-30T08:39:09;95626.44;;;10.49;48.93
1029;BME280;503;48.120;11.488;2022-11-30T08:41:35;95624.44;;;10.22;48.41
1029;BME280;503;48.120;11.488;2022-11-30T08:44:03;95628.47;;;10.38;49.08
1029;BME280;503;48.120;11.488;2022-11-30T08:46:28;95622.97;;;10.35;48.70
1029;BME280;503;48.120;11.488;2022-11-30T08:48:53;95628.69;;;10.42;48.86
1029;BME280;503;48.120;11.488;2022-11-30T08:51:19;95631.47;;;10.51;48.71
1029;BME280;503;48.120;11.488;2022-11-30T08:53:45;95634.25;;;10.59;49.46
1029;BME280;503;48.120;11.488;2022-11-30T08:56:12;95644.00;;;10.64;49.24
1029;BME280;503;48.120;11.488;2022-11-30T08:58:38;95644.16;;;10.73;48.52
1029;BME280;503;48.120;11.488;2022-11-30T09:01:07;95645.63;;;10.65;48.78
1029;BME280;503;48.120;11.488;2022-11-30T09:03:32;95642.91;;;10.51;48.50
1029;BME280;503;48.120;11.488;2022-11-30T09:06:08;95640.56;;;10.31;48.02
1029;BME280;503;48.120;11.488;2022-11-30T09:08:34;95651.13;;;10.36;48.35
1029;BME280;503;48.120;11.488;2022-11-30T09:13:34;95641.31;;;10.12;49.13
1029;BME280;503;48.120;11.488;2022-11-30T09:15:59;95644.28;;;10.11;49.25
1029;BME280;503;48.120;11.488;2022-11-30T09:18:24;95647.81;;;10.06;48.81
1029;BME280;503;48.120;11.488;2022-11-30T09:20:49;95649.09;;;10.09;49.27
1029;BME280;503;48.120;11.488;2022-11-30T09:23:14;95644.78;;;10.13;49.46
1029;BME280;503;48.120;11.488;2022-11-30T09:25:40;95651.69;;;10.14;49.38
1029;BME280;503;48.120;11.488;2022-11-30T09:28:05;95648.03;;;9.48;49.78
1029;BME280;503;48.120;11.488;2022-11-30T09:30:30;95654.88;;;9.54;50.54
1029;BME280;503;48.120;11.488;2022-11-30T09:32:55;95651.66;;;9.57;50.66
1029;BME280;503;48.120;11.488;2022-11-30T09:35:23;95637.81;;;9.79;50.18
1029;BME280;503;48.120;11.488;2022-11-30T09:37:48;95637.31;;;9.96;50.01
1029;BME280;503;48.120;11.488;2022-11-30T09:40:20;95633.22;;;10.04;50.24
1029;BME280;503;48.120;11.488;2022-11-30T09:45:36;95644.78;;;9.94;49.78
1029;BME280;503;48.120;11.488;2022-11-30T09:48:12;95633.72;;;9.68;49.87
1029;BME280;503;48.120;11.488;2022-11-30T09:50:42;95641.16;;;9.66;50.65
1029;BME280;503;48.120;11.488;2022-11-30T09:53:42;95637.66;;;9.71;49.99
1029;BME280;503;48.120;11.488;2022-11-30T09:55:59;95639.72;;;9.55;50.00
1029;BME280;503;48.120;11.488;2022-11-30T10:01:14;95644.78;;;9.32;51.53
1029;BME280;503;48.120;11.488;2022-11-30T10:03:40;95642.31;;;9.36;51.17
1029;BME280;503;48.120;11.488;2022-11-30T10:06:17;95637.81;;;9.79;50.32
1029;BME280;503;48.120;11.488;2022-11-30T10:11:23;95630.41;;;9.57;50.21
1029;BME280;503;48.120;11.488;2022-11-30T10:14:01;95630.81;;;9.22;50.46
1029;BME280;503;48.120;11.488;2022-11-30T10:16:41;95633.97;;;9.67;50.12
1029;BME280;503;48.120;11.488;2022-11-30T10:19:24;95637.09;;;9.07;49.81
1029;BME280;503;48.120;11.488;2022-11-30T10:27:09;95641.59;;;9.54;50.02
1029;BME280;503;48.120;11.488;2022-11-30T10:29:37;95631.97;;;9.58;49.48
1029;BME280;503;48.120;11.488;2022-11-30T10:32:17;95636.75;;;9.99;48.76
1029;BME280;503;48.120;11.488;2022-11-30T10:34:44;95633.50;;;10.02;48.72
1029;BME280;503;48.120;11.488;2022-11-30T10:37:18;95637.31;;;9.96;48.35
1029;BME280;503;48.120;11.488;2022-11-30T10:40:08;95630.78;;;9.88;48.32
1029;BME280;503;48.120;11.488;2022-11-30T10:42:37;95635.34;;;9.64;48.03
1029;BME280;503;48.120;11.488;2022-11-30T10:45:11;95631.13;;;10.01;48.17
1029;BME280;503;48.120;11.488;2022-11-30T10:47:42;95636.25;;;9.78;47.30
1029;BME280;503;48.120;11.488;2022-11-30T10:50:12;95621.59;;;9.81;47.95
1029;BME280;503;48.120;11.488;2022-11-30T10:52:40;95630.41;;;9.09;48.80
1029;BME280;503;48.120;11.488;2022-11-30T10:55:16;95624.75;;;9.64;47.77
1029;BME280;503;48.120;11.488;2022-11-30T10:57:42;95618.47;;;9.55;47.93
1029;BME280;503;48.120;11.488;2022-11-30T11:00:13;95616.66;;;9.93;48.44
1029;BME280;503;48.120;11.488;2022-11-30T11:02:43;95618.00;;;10.28;47.71
1029;BME280;503;48.120;11.488;2022-11-30T11:05:14;95622.25;;;10.62;47.22
1029;BME280;503;48.120;11.488;2022-11-30T11:07:44;95614.97;;;10.67;47.13
1029;BME280;503;48.120;11.488;2022-11-30T11:10:14;95611.66;;;10.89;46.58
1029;BME280;503;48.120;11.488;2022-11-30T11:12:44;95609.50;;;11.05;46.73
1029;BME280;503;48.120;11.488;2022-11-30T11:15:18;95614.13;;;10.53;46.78
1029;BME280;503;48.120;11.488;2022-11-30T11:17:43;95602.69;;;10.85;45.73
1029;BME280;503;48.120;11.488;2022-11-30T11:22:53;95614.22;;;10.81;45.37
1029;BME280;503;48.120;11.488;2022-11-30T11:25:20;95608.03;;;11.13;45.97
1029;BME280;503;48.120;11.488;2022-11-30T11:27:53;95607.63;;;11.19;45.09
1029;BME280;503;48.120;11.488;2022-11-30T11:33:01;95599.53;;;9.99;47.52
1029;BME280;503;48.120;11.488;2022-11-30T11:35:37;95602.41;;;10.54;46.36
1029;BME280;503;48.120;11.488;2022-11-30T11:38:16;95602.41;;;11.01;45.65
1029;BME280;503;48.120;11.488;2022-11-30T11:40:49;95608.25;;;11.16;44.79
1029;BME280;503;48.120;11.488;2022-11-30T11:43:15;95607.69;;;10.73;45.70
1029;BME280;503;48.120;11.488;2022-11-30T11:45:40;95608.91;;;10.81;45.09
1029;BME280;503;48.120;11.488;2022-11-30T11:51:00;95608.03;;;10.85;44.82
1029;BME280;503;48.120;11.488;2022-11-30T11:53:35;95606.69;;;10.69;45.44
1029;BME280;503;48.120;11.488;2022-11-30T11:56:04;95600.63;;;10.82;44.26
1029;BME280;503;48.120;11.488;2022-11-30T12:01:24;95597.19;;;10.49;44.66
1029;BME280;503;48.120;11.488;2022-11-30T12:06:42;95605.09;;;10.68;44.96
1029;BME280;503;48.120;11.488;2022-11-30T12:09:13;95602.47;;;10.35;45.38
1029;BME280;503;48.120;11.488;2022-11-30T12:11:42;95599.06;;;10.49;45.13
1029;BME280;503;48.120;11.488;2022-11-30T12:14:09;95602.13;;;10.56;45.42
1029;BME280;503;48.120;11.488;2022-11-30T12:16:49;95597.69;;;10.51;45.06
1029;BME280;503;48.120;11.488;2022-11-30T12:19:40;95597.72;;;10.32;44.44
1029;BME280;503;48.120;11.488;2022-11-30T12:25:06;95588.50;;;10.44;45.34
1029;BME280;503;48.120;11.488;2022-11-30T12:30:02;95592.53;;;9.47;46.46
1029;BME280;503;48.120;11.488;2022-11-30T12:37:44;95597.38;;;9.82;46.77
1029;BME280;503;48.120;11.488;2022-11-30T12:40:17;95600.75;;;9.69;45.74
1029;BME280;503;48.120;11.488;2022-11-30T12:47:56;95600.41;;;9.95;45.23
1029;BME280;503;48.120;11.488;2022-11-30T12:53:05;95598.59;;;10.09;46.04
1029;BME280;503;48.120;11.488;2022-11-30T12:58:05;95596.13;;;10.12;46.47
1029;BME280;503;48.120;11.488;2022-11-30T13:00:37;95595.16;;;10.27;46.14
1029;BME280;503;48.120;11.488;2022-11-30T13:03:14;95599.94;;;10.44;46.07
1029;BME280;503;48.120;11.488;2022-11-30T13:05:56;95603.22;;;10.55;45.80
1029;BME280;503;48.120;11.488;2022-11-30T13:11:12;95594.72;;;10.85;45.80
1029;BME280;503;48.120;11.488;2022-11-30T13:13:42;95599.03;;;10.81;45.44
1029;BME280;503;48.120;11.488;2022-11-30T13:16:10;95604.63;;;10.80;45.65
1029;BME280;503;48.120;11.488;2022-11-30T13:18:35;95593.91;;;10.71;45.82
1029;BME280;503;48.120;11.488;2022-11-30T13:21:06;95594.81;;;10.80;46.21
1029;BME280;503;48.120;11.488;2022-11-30T13:23:38;95590.19;;;10.86;45.23
1029;BME280;503;48.120;11.488;2022-11-30T13:26:08;95595.44;;;10.58;43.91
1029;BME280;503;48.120;11.488;2022-11-30T13:31:13;95595.44;;;10.58;44.50
1029;BME280;503;48.120;11.488;2022-11-30T13:33:45;95598.03;;;10.77;44.48
1029;BME280;503;48.120;11.488;2022-11-30T13:36:29;95594.63;;;10.90;44.22
1029;BME280;503;48.120;11.488;2022-11-30T13:41:42;95592.22;;;10.89;45.08
1029;BME280;503;48.120;11.488;2022-11-30T13:44:24;95596.47;;;10.76;44.52
1029;BME280;503;48.120;11.488;2022-11-30T13:46:53;95530.91;;;10.20;44.55
1029;BME280;503;48.120;11.488;2022-11-30T13:49:20;95599.22;;;10.71;44.52
1029;BME280;503;48.120;11.488;2022-11-30T13:51:46;95603.88;;;10.47;45.49
1029;BME280;503;48.120;11.488;2022-11-30T13:56:55;95604.53;;;10.38;45.14
1029;BME280;503;48.120;11.488;2022-11-30T14:01:47;95598.31;;;10.10;46.05
1029;BME280;503;48.120;11.488;2022-11-30T14:06:48;95604.72;;;9.90;46.92
1029;BME280;503;48.120;11.488;2022-11-30T14:09:59;95608.22;;;10.05;46.33
1029;BME280;503;48.120;11.488;2022-11-30T14:12:29;95605.34;;;10.01;46.63
1029;BME280;503;48.120;11.488;2022-11-30T14:14:46;95603.22;;;9.84;46.72
1029;BME280;503;48.120;11.488;2022-11-30T14:17:44;95602.84;;;9.53;47.68
1029;BME280;503;48.120;11.488;2022-11-30T14:20:07;95601.03;;;9.25;48.47
1029;BME280;503;48.120;11.488;2022-11-30T14:22:38;95614.06;;;8.44;50.66
1029;BME280;503;48.120;11.488;2022-11-30T14:25:05;95609.88;;;8.96;49.63
1029;BME280;503;48.120;11.488;2022-11-30T14:27:36;95612.69;;;9.05;49.98
1029;BME280;503;48.120;11.488;2022-11-30T14:30:02;95612.53;;;8.96;50.02
1029;BME280;503;48.120;11.488;2022-11-30T14:32:29;95611.06;;;8.80;50.37
1029;BME280;503;48.120;11.488;2022-11-30T14:35:02;95608.72;;;9.26;49.64
1029;BME280;503;48.120;11.488;2022-11-30T14:37:31;95616.97;;;9.25;49.49
1029;BME280;503;48.120;11.488;2022-11-30T14:40:00;95610.28;;;8.79;50.70
1029;BME280;503;48.120;11.488;2022-11-30T14:42:27;95611.75;;;8.96;50.66
1029;BME280;503;48.120;11.488;2022-11-30T14:44:53;95619.94;;;8.70;51.47
1029;BME280;503;48.120;11.488;2022-11-30T14:49:45;95609.56;;;8.74;51.00
1029;BME280;503;48.120;11.488;2022-11-30T14:52:10;95616.13;;;9.05;50.40
1029;BME280;503;48.120;11.488;2022-11-30T14:54:45;95615.13;;;9.01;50.41
1029;BME280;503;48.120;11.488;2022-11-30T14:57:31;95615.13;;;9.01;50.65
1029;BME280;503;48.120;11.488;2022-11-30T14:59:59;95617.03;;;8.38;52.57
1029;BME280;503;48.120;11.488;2022-11-30T15:02:26;95618.69;;;8.23;53.40
1029;BME280;503;48.120;11.488;2022-11-30T15:04:53;95614.56;;;8.12;54.21
1029;BME280;503;48.120;11.488;2022-11-30T15:07:19;95626.75;;;8.08;54.68
1029;BME280;503;48.120;11.488;2022-11-30T15:09:46;95620.75;;;8.37;54.02